createdAt,value
2022-10-27T00:00:29.100Z,32.97
2022-10-27T00:03:19.925Z,36.58
2022-10-27T00:05:50.036Z,37.05
2022-10-27T00:08:22.223Z,33.70
2022-10-27T00:10:59.107Z,34.95
2022-10-27T00:13:31.273Z,34.75
2022-10-27T00:16:01.282Z,36.45
2022-10-27T00:18:31.254Z,33.60
2022-10-27T00:21:02.689Z,36.80
2022-10-27T00:23:32.365Z,35.78
2022-10-27T00:26:02.705Z,34.05
2022-10-27T00:31:04.846Z,35.58
2022-10-27T00:33:34.694Z,33.42
2022-10-27T00:36:08.274Z,36.30
2022-10-27T00:38:38.487Z,33.90
2022-10-27T00:41:09.733Z,33.38
2022-10-27T00:43:41.533Z,31.48
2022-10-27T00:46:21.989Z,32.75
2022-10-27T00:51:22.576Z,29.95
2022-10-27T00:53:52.960Z,32.00
2022-10-27T00:56:22.309Z,34.38
2022-10-27T00:58:53.886Z,31.57
2022-10-27T01:01:23.832Z,32.05
2022-10-27T01:03:53.922Z,37.30
2022-10-27T01:06:23.287Z,33.38
2022-10-27T01:08:53.457Z,30.10
2022-10-27T01:11:22.717Z,33.60
2022-10-27T01:13:54.817Z,34.83
2022-10-27T01:16:35.190Z,33.30
2022-10-27T01:21:55.397Z,29.63
2022-10-27T01:24:48.318Z,30.52
2022-10-27T01:27:44.284Z,30.40
2022-10-27T01:30:18.908Z,31.98
2022-10-27T01:32:58.813Z,33.30
2022-10-27T01:35:36.464Z,36.95
2022-10-27T01:38:14.366Z,40.75
2022-10-27T01:40:48.338Z,34.92
2022-10-27T01:43:21.927Z,35.10
2022-10-27T01:45:53.045Z,35.47
2022-10-27T01:51:02.213Z,31.02
2022-10-27T01:53:34.796Z,30.40
2022-10-27T01:56:31.572Z,34.40
2022-10-27T01:59:27.935Z,29.77
2022-10-27T02:02:07.611Z,35.13
2022-10-27T02:04:47.056Z,54.70
2022-10-27T02:07:27.668Z,86.05
2022-10-27T02:10:02.071Z,55.97
2022-10-27T02:12:35.800Z,57.00
2022-10-27T02:15:08.765Z,63.47
2022-10-27T02:17:41.133Z,113.68
2022-10-27T02:20:17.570Z,43.97
2022-10-27T02:22:51.387Z,54.95
2022-10-27T02:25:26.743Z,48.78
2022-10-27T02:28:02.239Z,42.53
2022-10-27T02:30:33.050Z,45.53
2022-10-27T02:33:03.897Z,52.58
2022-10-27T02:35:35.348Z,48.70
2022-10-27T02:38:06.876Z,52.85
2022-10-27T02:43:11.136Z,40.80
2022-10-27T02:45:40.418Z,46.85
2022-10-27T02:48:10.010Z,41.47
2022-10-27T02:50:41.080Z,36.42
2022-10-27T02:53:10.744Z,39.85
2022-10-27T02:55:39.970Z,40.75
2022-10-27T02:58:09.979Z,36.50
2022-10-27T03:00:39.258Z,35.85
2022-10-27T03:03:09.443Z,38.63
2022-10-27T03:05:40.814Z,35.58
2022-10-27T03:08:11.948Z,36.03
2022-10-27T03:10:41.225Z,35.60
2022-10-27T03:13:11.268Z,34.42
2022-10-27T03:15:40.518Z,33.90
2022-10-27T03:18:10.544Z,30.70
2022-10-27T03:20:41.256Z,31.08
2022-10-27T03:25:47.354Z,29.50
2022-10-27T03:28:18.129Z,34.20
2022-10-27T03:30:47.505Z,31.48
2022-10-27T03:33:17.149Z,34.45
2022-10-27T03:35:47.856Z,34.40
2022-10-27T03:38:17.856Z,31.92
2022-10-27T03:40:47.836Z,33.30
2022-10-27T03:43:17.482Z,31.13
2022-10-27T03:45:50.085Z,31.77
2022-10-27T03:48:20.086Z,28.70
2022-10-27T03:50:52.438Z,36.63
2022-10-27T03:53:22.077Z,37.63
2022-10-27T03:55:51.716Z,36.80
2022-10-27T03:58:21.395Z,31.08
2022-10-27T04:00:50.722Z,37.17
2022-10-27T04:03:20.477Z,34.55
2022-10-27T04:05:53.336Z,41.63
2022-10-27T04:08:22.876Z,43.40
2022-10-27T04:10:52.100Z,50.67
2022-10-27T04:13:22.441Z,47.78
2022-10-27T04:15:53.685Z,45.05
2022-10-27T04:18:23.232Z,44.97
2022-10-27T04:20:54.211Z,51.55
2022-10-27T04:23:23.777Z,41.13
2022-10-27T04:25:53.282Z,45.10
2022-10-27T04:28:22.784Z,39.78
2022-10-27T04:30:52.309Z,39.53
2022-10-27T04:33:25.020Z,44.28
2022-10-27T04:35:58.895Z,52.97
2022-10-27T04:38:30.329Z,41.75
2022-10-27T04:41:02.381Z,41.17
2022-10-27T04:43:32.300Z,47.70
2022-10-27T04:46:01.570Z,44.38
2022-10-27T04:48:31.117Z,44.25
2022-10-27T04:51:02.017Z,45.83
2022-10-27T04:53:31.976Z,41.22
2022-10-27T04:56:01.361Z,39.28
2022-10-27T04:58:31.361Z,43.90
2022-10-27T05:01:00.602Z,43.92
2022-10-27T05:03:30.337Z,49.47
2022-10-27T05:06:02.502Z,42.85
2022-10-27T05:08:32.476Z,43.78
2022-10-27T05:11:02.099Z,42.85
2022-10-27T05:13:31.960Z,51.10
2022-10-27T05:16:05.486Z,45.65
2022-10-27T05:18:35.125Z,45.75
2022-10-27T05:21:05.893Z,48.47
2022-10-27T05:23:35.899Z,40.20
2022-10-27T05:26:05.281Z,46.83
2022-10-27T05:28:34.781Z,43.22
2022-10-27T05:31:04.068Z,37.90
2022-10-27T05:33:33.717Z,42.58
2022-10-27T05:36:04.774Z,37.10
2022-10-27T05:38:34.802Z,41.90
2022-10-27T05:41:04.010Z,38.28
2022-10-27T05:43:37.674Z,38.60
2022-10-27T05:46:08.269Z,32.53
2022-10-27T05:48:38.249Z,29.37
2022-10-27T05:51:09.252Z,37.45
2022-10-27T05:53:39.412Z,34.83
2022-10-27T05:56:09.165Z,36.38
2022-10-27T05:58:38.998Z,35.72
2022-10-27T06:01:08.317Z,37.63
2022-10-27T06:03:37.944Z,33.17
2022-10-27T06:06:09.321Z,43.85
2022-10-27T06:08:39.182Z,42.35
2022-10-27T06:11:08.518Z,42.67
2022-10-27T06:13:38.037Z,33.83
2022-10-27T06:16:10.801Z,41.60
2022-10-27T06:18:42.897Z,33.53
2022-10-27T06:21:13.867Z,38.78
2022-10-27T06:23:43.530Z,35.25
2022-10-27T06:26:13.516Z,34.13
2022-10-27T06:28:43.454Z,37.55
2022-10-27T06:31:12.685Z,32.10
2022-10-27T06:33:42.805Z,31.77
2022-10-27T06:36:13.710Z,32.88
2022-10-27T06:38:44.514Z,32.15
2022-10-27T06:41:15.402Z,32.60
2022-10-27T06:43:47.347Z,36.45
2022-10-27T06:46:16.833Z,35.83
2022-10-27T06:48:46.700Z,37.70
2022-10-27T06:51:17.608Z,35.53
2022-10-27T06:53:47.147Z,31.40
2022-10-27T06:56:16.556Z,31.75
2022-10-27T06:58:48.530Z,35.47
2022-10-27T07:01:18.890Z,32.38
2022-10-27T07:03:48.853Z,33.10
2022-10-27T07:06:19.675Z,35.17
2022-10-27T07:08:50.325Z,34.15
2022-10-27T07:11:19.663Z,30.55
2022-10-27T07:13:49.560Z,30.13
2022-10-27T07:16:18.836Z,39.25
2022-10-27T07:18:48.718Z,27.77
2022-10-27T07:21:19.551Z,31.60
2022-10-27T07:23:49.548Z,28.02
2022-10-27T07:26:19.052Z,27.67
2022-10-27T07:28:48.598Z,26.65
2022-10-27T07:31:17.996Z,27.85
2022-10-27T07:33:47.760Z,30.27
2022-10-27T07:36:17.182Z,26.08
2022-10-27T07:38:48.204Z,26.60
2022-10-27T07:43:49.262Z,22.63
2022-10-27T07:46:18.777Z,22.48
2022-10-27T07:48:48.831Z,20.10
2022-10-27T07:51:18.405Z,20.88
2022-10-27T07:53:55.384Z,16.98
2022-10-27T07:56:27.209Z,20.98
2022-10-27T07:58:56.813Z,22.23
2022-10-27T08:01:26.358Z,21.52
2022-10-27T08:03:56.022Z,18.47
2022-10-27T08:06:25.404Z,27.48
2022-10-27T08:08:57.180Z,39.40
2022-10-27T08:11:26.532Z,29.48
2022-10-27T08:13:56.396Z,18.43
2022-10-27T08:16:25.916Z,19.60
2022-10-27T08:18:55.873Z,19.30
2022-10-27T08:21:25.097Z,19.75
2022-10-27T08:23:56.305Z,13.23
2022-10-27T08:26:25.725Z,16.10
2022-10-27T08:28:55.604Z,13.48
2022-10-27T08:31:24.972Z,10.95
2022-10-27T08:33:54.620Z,9.85
2022-10-27T08:36:23.858Z,11.68
2022-10-27T08:38:53.828Z,11.45
2022-10-27T08:41:29.628Z,16.60
2022-10-27T08:44:15.023Z,14.30
2022-10-27T08:46:48.823Z,12.70
2022-10-27T08:49:35.820Z,11.95
2022-10-27T08:52:13.168Z,13.50
2022-10-27T08:54:45.349Z,10.20
2022-10-27T08:57:25.160Z,17.55
2022-10-27T08:59:56.133Z,16.15
2022-10-27T09:02:50.564Z,13.60
2022-10-27T09:05:36.529Z,10.23
2022-10-27T09:08:14.281Z,11.48
2022-10-27T09:10:54.300Z,16.02
2022-10-27T09:13:40.401Z,12.40
2022-10-27T09:16:16.101Z,13.55
2022-10-27T09:18:50.207Z,14.80
2022-10-27T09:21:22.985Z,15.48
2022-10-27T09:23:55.212Z,18.52
2022-10-27T09:26:30.561Z,17.52
2022-10-27T09:29:05.107Z,13.85
2022-10-27T09:31:38.609Z,16.42
2022-10-27T09:34:17.454Z,18.48
2022-10-27T09:36:47.529Z,17.08
2022-10-27T09:41:52.488Z,14.85
2022-10-27T09:44:26.969Z,18.13
2022-10-27T09:46:58.134Z,12.55
2022-10-27T09:49:33.777Z,14.50
2022-10-27T09:52:11.897Z,16.50
2022-10-27T09:54:42.974Z,16.42
2022-10-27T09:57:15.873Z,11.93
2022-10-27T09:59:57.676Z,13.90
2022-10-27T10:02:30.120Z,11.55
2022-10-27T10:05:00.658Z,12.70
2022-10-27T10:07:36.537Z,13.25
2022-10-27T10:10:09.653Z,11.63
2022-10-27T10:12:39.516Z,9.10
2022-10-27T10:15:23.616Z,11.50
2022-10-27T10:17:55.926Z,12.30
2022-10-27T10:23:23.873Z,13.10
2022-10-27T10:25:55.639Z,11.73
2022-10-27T10:28:33.352Z,13.55
2022-10-27T10:31:07.198Z,9.32
2022-10-27T10:33:40.261Z,11.57
2022-10-27T10:36:26.643Z,11.25
2022-10-27T10:38:58.100Z,11.70
2022-10-27T10:41:28.293Z,15.18
2022-10-27T10:44:15.170Z,18.60
2022-10-27T10:46:55.558Z,9.65
2022-10-27T10:49:27.640Z,13.50
2022-10-27T10:51:59.061Z,8.23
2022-10-27T10:54:33.651Z,11.35
2022-10-27T10:57:03.704Z,10.70
2022-10-27T10:59:36.460Z,14.77
2022-10-27T11:02:18.642Z,20.33
2022-10-27T11:04:48.926Z,16.98
2022-10-27T11:07:25.567Z,15.38
2022-10-27T11:10:02.663Z,15.50
2022-10-27T11:12:39.943Z,12.80
2022-10-27T11:15:29.436Z,16.60
2022-10-27T11:18:12.365Z,13.13
2022-10-27T11:20:44.813Z,15.27
2022-10-27T11:23:18.234Z,15.13
2022-10-27T11:25:47.983Z,14.18
2022-10-27T11:28:23.684Z,14.05
2022-10-27T11:31:00.406Z,14.10
2022-10-27T11:33:39.064Z,11.23
2022-10-27T11:36:16.602Z,12.27
2022-10-27T11:38:56.602Z,20.52
2022-10-27T11:41:31.973Z,16.48
2022-10-27T11:44:10.118Z,17.25
2022-10-27T11:46:44.749Z,19.30
2022-10-27T11:49:22.581Z,18.60
2022-10-27T11:51:58.073Z,24.27
2022-10-27T11:54:28.870Z,17.95
2022-10-27T11:57:11.596Z,22.42
2022-10-27T12:00:01.526Z,16.63
2022-10-27T12:03:11.126Z,15.00
2022-10-27T12:05:48.255Z,13.02
2022-10-27T12:08:26.338Z,14.70
2022-10-27T12:11:07.083Z,15.55
2022-10-27T12:13:44.278Z,18.77
2022-10-27T12:16:17.956Z,15.52
2022-10-27T12:18:53.277Z,18.27
2022-10-27T12:21:28.610Z,21.88
2022-10-27T12:24:04.752Z,16.65
2022-10-27T12:26:39.654Z,16.33
2022-10-27T12:29:11.054Z,16.05
2022-10-27T12:31:45.942Z,16.63
2022-10-27T12:34:18.379Z,11.88
2022-10-27T12:36:55.501Z,18.13
2022-10-27T12:39:29.464Z,13.25
2022-10-27T12:42:11.296Z,16.98
2022-10-27T12:44:53.760Z,15.57
2022-10-27T12:47:51.684Z,13.35
2022-10-27T12:50:33.922Z,14.85
2022-10-27T12:53:15.091Z,18.23
2022-10-27T12:55:51.863Z,16.52
2022-10-27T12:58:31.377Z,14.82
2022-10-27T13:01:12.662Z,17.35
2022-10-27T13:03:59.989Z,14.77
2022-10-27T13:06:55.856Z,13.70
2022-10-27T13:09:52.973Z,12.73
2022-10-27T13:12:44.578Z,13.73
2022-10-27T13:15:41.663Z,19.63
2022-10-27T13:18:22.866Z,15.48
2022-10-27T13:20:59.333Z,20.90
2022-10-27T13:23:37.605Z,18.48
2022-10-27T13:26:21.886Z,18.98
2022-10-27T13:28:56.537Z,19.30
2022-10-27T13:31:27.394Z,25.35
2022-10-27T13:34:21.613Z,21.63
2022-10-27T13:37:11.017Z,18.60
2022-10-27T13:39:49.113Z,22.88
2022-10-27T13:44:50.919Z,20.40
2022-10-27T13:47:21.383Z,21.25
2022-10-27T13:49:59.020Z,21.92
2022-10-27T13:52:30.440Z,19.48
2022-10-27T13:55:19.704Z,19.83
2022-10-27T13:58:25.984Z,19.00
2022-10-27T14:01:27.632Z,17.08
2022-10-27T14:04:18.257Z,18.23
2022-10-27T14:06:49.693Z,23.05
2022-10-27T14:09:26.454Z,23.88
2022-10-27T14:12:00.098Z,20.73
2022-10-27T14:14:34.830Z,22.02
2022-10-27T14:17:14.828Z,15.55
2022-10-27T14:19:48.272Z,22.77
2022-10-27T14:22:31.820Z,19.02
2022-10-27T14:25:12.043Z,21.45
2022-10-27T14:27:41.569Z,21.60
2022-10-27T14:30:19.306Z,21.63
2022-10-27T14:32:49.310Z,20.67
2022-10-27T14:35:27.435Z,22.35
2022-10-27T14:37:58.769Z,17.92
2022-10-27T14:40:37.687Z,22.40
2022-10-27T14:43:11.876Z,23.23
2022-10-27T14:45:43.746Z,19.10
2022-10-27T14:48:25.574Z,22.33
2022-10-27T14:50:55.814Z,18.38
2022-10-27T14:56:09.511Z,25.73
2022-10-27T14:58:39.419Z,21.05
2022-10-27T15:01:27.441Z,21.20
2022-10-27T15:04:00.538Z,22.40
2022-10-27T15:06:33.332Z,19.48
2022-10-27T15:09:04.112Z,17.65
2022-10-27T15:11:33.840Z,19.48
2022-10-27T15:14:03.781Z,21.93
2022-10-27T15:16:35.497Z,21.23
2022-10-27T15:19:05.852Z,29.25
2022-10-27T15:21:35.383Z,28.15
2022-10-27T15:24:08.142Z,28.30
2022-10-27T15:26:37.602Z,29.00
2022-10-27T15:29:14.265Z,22.50
2022-10-27T15:31:45.722Z,30.17
2022-10-27T15:34:32.406Z,28.45
2022-10-27T15:37:34.224Z,29.20
2022-10-27T15:40:22.088Z,31.27
2022-10-27T15:42:51.789Z,31.10
2022-10-27T15:45:39.902Z,27.83
2022-10-27T15:48:33.560Z,31.60
2022-10-27T15:51:06.450Z,41.83
2022-10-27T15:53:39.197Z,31.95
2022-10-27T15:56:26.064Z,35.92
2022-10-27T15:59:13.101Z,38.33
2022-10-27T16:01:45.737Z,33.10
2022-10-27T16:04:31.535Z,28.98
2022-10-27T16:07:33.357Z,44.00
2022-10-27T16:12:42.965Z,38.42
2022-10-27T16:15:22.249Z,38.78
2022-10-27T16:17:55.862Z,40.53
2022-10-27T16:20:29.605Z,38.00
2022-10-27T16:22:59.534Z,41.08
2022-10-27T16:25:31.249Z,44.00
2022-10-27T16:28:03.690Z,44.85
2022-10-27T16:30:38.686Z,45.05
2022-10-27T16:33:08.822Z,46.45
2022-10-27T16:35:40.387Z,48.88
2022-10-27T16:38:11.791Z,47.42
2022-10-27T16:40:44.382Z,46.03
2022-10-27T16:43:24.832Z,59.55
2022-10-27T16:45:54.248Z,43.50
2022-10-27T16:48:24.328Z,53.25
2022-10-27T16:50:55.060Z,47.88
2022-10-27T16:53:24.759Z,52.90
2022-10-27T16:56:04.240Z,46.58
2022-10-27T16:58:36.692Z,48.42
2022-10-27T17:01:07.354Z,47.92
2022-10-27T17:03:37.992Z,53.25
2022-10-27T17:06:09.494Z,48.95
2022-10-27T17:08:40.811Z,50.90
2022-10-27T17:11:12.033Z,50.63
2022-10-27T17:13:41.808Z,46.63
2022-10-27T17:16:14.459Z,47.70
2022-10-27T17:18:44.539Z,45.13
2022-10-27T17:21:15.885Z,57.92
2022-10-27T17:23:46.498Z,47.13
2022-10-27T17:26:17.472Z,46.85
2022-10-27T17:28:49.217Z,47.20
2022-10-27T17:31:22.829Z,52.05
2022-10-27T17:33:56.489Z,53.15
2022-10-27T17:36:27.881Z,51.25
2022-10-27T17:38:57.909Z,52.38
2022-10-27T17:41:27.223Z,49.63
2022-10-27T17:43:56.939Z,52.85
2022-10-27T17:46:27.820Z,49.13
2022-10-27T17:51:35.296Z,48.75
2022-10-27T17:54:05.515Z,51.20
2022-10-27T17:56:37.308Z,49.03
2022-10-27T17:59:13.731Z,47.92
2022-10-27T18:01:44.010Z,48.17
2022-10-27T18:06:44.994Z,45.90
2022-10-27T18:09:15.191Z,43.45
2022-10-27T18:11:45.105Z,50.05
2022-10-27T18:14:17.598Z,50.08
2022-10-27T18:16:47.313Z,46.80
2022-10-27T18:19:18.125Z,58.28
2022-10-27T18:21:49.914Z,48.72
2022-10-27T18:24:21.869Z,48.53
2022-10-27T18:26:51.236Z,53.83
2022-10-27T18:29:23.801Z,46.22
2022-10-27T18:31:55.860Z,53.13
2022-10-27T18:34:26.152Z,50.50
2022-10-27T18:36:57.154Z,51.50
2022-10-27T18:39:26.831Z,45.17
2022-10-27T18:41:56.235Z,45.78
2022-10-27T18:44:25.985Z,43.95
2022-10-27T18:46:55.272Z,44.58
2022-10-27T18:49:46.909Z,50.63
2022-10-27T18:52:15.641Z,42.63
2022-10-27T18:54:46.495Z,47.75
2022-10-27T18:57:15.766Z,47.40
2022-10-27T18:59:45.673Z,44.23
2022-10-27T19:02:15.065Z,43.05
2022-10-27T19:04:45.342Z,42.20
2022-10-27T19:07:16.351Z,44.30
2022-10-27T19:09:45.881Z,43.58
2022-10-27T19:12:15.353Z,47.33
2022-10-27T19:14:45.450Z,46.88
2022-10-27T19:17:14.741Z,39.20
2022-10-27T19:19:44.439Z,43.75
2022-10-27T19:22:18.993Z,46.40
2022-10-27T19:24:48.812Z,41.85
2022-10-27T19:27:18.125Z,45.70
2022-10-27T19:29:47.646Z,41.20
2022-10-27T19:32:16.921Z,50.90
2022-10-27T19:34:49.171Z,38.90
2022-10-27T19:37:20.977Z,40.60
2022-10-27T19:39:50.821Z,46.65
2022-10-27T19:42:20.066Z,41.95
2022-10-27T19:44:51.597Z,37.03
2022-10-27T19:47:21.038Z,38.15
2022-10-27T19:49:51.049Z,40.47
2022-10-27T19:52:22.506Z,33.67
2022-10-27T19:54:52.305Z,37.58
2022-10-27T19:57:21.570Z,45.92
2022-10-27T19:59:51.275Z,38.90
2022-10-27T20:02:20.781Z,33.97
2022-10-27T20:04:50.850Z,34.28
2022-10-27T20:07:21.676Z,36.92
2022-10-27T20:09:52.017Z,39.42
2022-10-27T20:12:22.288Z,29.00
2022-10-27T20:14:51.928Z,31.10
2022-10-27T20:17:21.234Z,36.83
2022-10-27T20:19:50.765Z,35.25
2022-10-27T20:22:21.518Z,29.83
2022-10-27T20:24:55.104Z,35.10
2022-10-27T20:27:24.863Z,32.42
2022-10-27T20:29:55.114Z,30.40
2022-10-27T20:32:24.741Z,28.52
2022-10-27T20:34:54.413Z,26.87
2022-10-27T20:37:25.370Z,27.00
2022-10-27T20:39:55.392Z,30.27
2022-10-27T20:42:24.976Z,29.80
2022-10-27T20:44:55.349Z,26.25
2022-10-27T20:47:24.719Z,25.48
2022-10-27T20:49:54.645Z,25.73
2022-10-27T20:52:25.495Z,24.02
2022-10-27T20:54:55.585Z,21.27
2022-10-27T20:57:24.910Z,26.52
2022-10-27T20:59:54.598Z,22.50
2022-10-27T21:02:24.043Z,24.85
2022-10-27T21:04:54.790Z,22.13
2022-10-27T21:07:28.759Z,22.48
2022-10-27T21:10:00.718Z,23.70
2022-10-27T21:12:31.316Z,23.63
2022-10-27T21:17:41.641Z,28.25
2022-10-27T21:20:16.720Z,24.92
2022-10-27T21:22:50.924Z,28.20
2022-10-27T21:25:22.839Z,28.83
2022-10-27T21:27:55.729Z,24.17
2022-10-27T21:30:30.905Z,28.52
2022-10-27T21:33:07.957Z,26.45
2022-10-27T21:35:46.071Z,26.15
2022-10-27T21:38:29.158Z,25.40
2022-10-27T21:41:09.120Z,28.92
2022-10-27T21:43:47.125Z,25.83
2022-10-27T21:46:31.371Z,26.67
2022-10-27T21:49:12.957Z,32.70
2022-10-27T21:51:51.712Z,25.17
2022-10-27T21:54:25.303Z,29.23
2022-10-27T21:56:56.549Z,29.48
2022-10-27T22:01:56.529Z,21.45
2022-10-27T22:04:28.577Z,23.38
2022-10-27T22:06:59.158Z,22.80
2022-10-27T22:09:29.895Z,26.88
2022-10-27T22:11:59.981Z,24.08
2022-10-27T22:14:32.043Z,24.42
2022-10-27T22:17:02.601Z,27.52
2022-10-27T22:19:32.971Z,30.63
2022-10-27T22:24:38.613Z,29.55
2022-10-27T22:27:08.665Z,27.10
2022-10-27T22:29:37.997Z,25.88
2022-10-27T22:32:08.020Z,32.78
2022-10-27T22:34:37.286Z,25.25
2022-10-27T22:37:06.849Z,26.90
2022-10-27T22:39:37.657Z,28.38
2022-10-27T22:42:07.320Z,38.65
2022-10-27T22:44:36.841Z,29.40
2022-10-27T22:47:06.797Z,28.70
2022-10-27T22:49:37.374Z,28.15
2022-10-27T22:52:07.811Z,29.52
2022-10-27T22:54:38.594Z,31.10
2022-10-27T22:57:08.911Z,30.58
2022-10-27T22:59:38.239Z,28.20
2022-10-27T23:02:07.954Z,34.80
2022-10-27T23:04:37.544Z,28.70
2022-10-27T23:07:07.530Z,30.55
2022-10-27T23:09:38.328Z,30.85
2022-10-27T23:12:09.056Z,30.67
2022-10-27T23:14:38.461Z,24.35
2022-10-27T23:17:08.550Z,28.37
2022-10-27T23:19:37.915Z,27.48
2022-10-27T23:22:07.455Z,28.73
2022-10-27T23:24:38.240Z,28.17
2022-10-27T23:27:08.142Z,29.45
2022-10-27T23:29:37.445Z,26.73
2022-10-27T23:32:07.264Z,27.02
2022-10-27T23:34:36.849Z,29.77
2022-10-27T23:37:06.353Z,30.92
2022-10-27T23:39:35.712Z,28.42
2022-10-27T23:42:07.213Z,32.03
2022-10-27T23:47:05.814Z,27.40
2022-10-27T23:49:35.189Z,28.92
2022-10-27T23:52:05.234Z,26.30
2022-10-27T23:54:34.470Z,30.02
2022-10-27T23:57:04.193Z,28.23
2022-10-27T23:59:34.933Z,26.30
